Time;durP1;ratioP1;P1;durP2;ratioP2;P2;SDS_P1;SDS_P2;PMS_P1;PMS_P2;Temp;Humidity;BMP_temperature;BMP_pressure;BME280_temperature;BME280_humidity;BME280_pressure;Samples;Min_cycle;Max_cycle;Signal;HPM_P1;HPM_P2
2022/04/10 00:04:27;;;;;;;4.37;2.67;;;16.00;61.90;;;;;;10311242;28;20233;-86
2022/04/10 00:09:30;;;;;;;3.47;2.23;;;15.90;62.20;;;;;;10310802;28;20651;-86
2022/04/10 00:14:32;;;;;;;3.27;2.03;;;15.90;62.00;;;;;;10272273;28;20272;-86
2022/04/10 00:19:35;;;;;;;2.47;1.97;;;16.00;61.90;;;;;;10287806;28;20305;-86
2022/04/10 00:24:37;;;;;;;3.67;2.07;;;16.00;62.40;;;;;;10269421;28;20662;-86
2022/04/10 00:29:43;;;;;;;4.17;1.97;;;15.90;61.80;;;;;;10286490;28;20284;-86
2022/04/10 00:34:46;;;;;;;3.90;2.30;;;16.00;61.70;;;;;;10253959;28;20285;-86
2022/04/10 00:39:48;;;;;;;2.67;2.10;;;16.00;61.60;;;;;;10269610;28;20250;-86
2022/04/10 00:44:51;;;;;;;4.50;2.10;;;15.90;61.60;;;;;;10287061;28;20696;-86
2022/04/10 00:49:57;;;;;;;3.93;1.60;;;15.90;61.60;;;;;;10286106;28;20291;-86
2022/04/10 00:55:00;;;;;;;4.57;1.90;;;16.00;61.50;;;;;;10286800;28;20631;-86
2022/04/10 01:00:12;;;;;;;2.50;1.70;;;15.90;61.30;;;;;;10269112;28;20635;-85
2022/04/10 01:05:14;;;;;;;3.30;2.17;;;15.90;61.30;;;;;;10242696;29;20684;-86
2022/04/10 01:10:17;;;;;;;2.53;1.90;;;16.00;61.20;;;;;;10275512;28;20292;-86
2022/04/10 01:15:22;;;;;;;2.03;1.63;;;15.90;61.20;;;;;;10273475;28;20332;-86
2022/04/10 01:20:26;;;;;;;3.60;2.00;;;15.90;61.10;;;;;;10268961;28;20232;-86
2022/04/10 01:25:34;;;;;;;3.03;1.40;;;15.90;61.20;;;;;;10268716;28;20210;-86
2022/04/10 01:30:39;;;;;;;3.87;1.83;;;15.90;61.10;;;;;;10268720;28;20708;-86
2022/04/10 01:35:42;;;;;;;3.80;2.20;;;15.90;60.90;;;;;;10272893;28;20315;-86
2022/04/10 01:40:48;;;;;;;3.17;1.87;;;15.90;60.80;;;;;;10275720;28;20265;-86
2022/04/10 01:45:50;;;;;;;3.13;1.73;;;15.90;60.90;;;;;;10293204;28;20237;-86
2022/04/10 01:50:53;;;;;;;3.57;1.83;;;15.90;60.80;;;;;;10275043;28;20635;-86
2022/04/10 01:55:56;;;;;;;3.27;1.43;;;15.80;60.80;;;;;;10290379;28;20332;-86
2022/04/10 02:01:04;;;;;;;2.17;1.57;;;15.80;60.80;;;;;;10274951;28;20211;-86
2022/04/10 02:06:08;;;;;;;2.67;1.63;;;15.80;60.80;;;;;;10290440;28;20308;-86
2022/04/10 02:11:14;;;;;;;1.40;1.30;;;15.90;60.80;;;;;;10313216;28;20256;-86
2022/04/10 02:16:19;;;;;;;3.33;2.23;;;15.90;60.80;;;;;;10294567;28;20257;-86
2022/04/10 02:21:23;;;;;;;1.37;1.27;;;15.80;60.70;;;;;;10256273;28;20306;-85
2022/04/10 02:26:26;;;;;;;2.43;1.33;;;15.80;60.80;;;;;;10286109;28;20253;-86
2022/04/10 02:31:29;;;;;;;3.27;1.57;;;15.80;60.70;;;;;;10304141;28;20210;-85
2022/04/10 02:36:31;;;;;;;3.47;1.53;;;15.80;60.60;;;;;;10327948;28;20272;-85
2022/04/10 02:41:34;;;;;;;2.97;1.43;;;15.80;60.50;;;;;;10309741;28;20639;-85
2022/04/10 02:46:37;;;;;;;2.73;1.43;;;15.90;60.50;;;;;;10270300;28;20706;-86
2022/04/10 02:51:39;;;;;;;3.13;1.57;;;15.80;60.50;;;;;;10309807;28;20275;-86
2022/04/10 02:56:42;;;;;;;2.80;1.60;;;15.80;60.40;;;;;;10279144;28;20712;-86
2022/04/10 03:01:48;;;;;;;2.33;1.33;;;15.90;60.30;;;;;;10271331;28;20300;-86
2022/04/10 03:06:51;;;;;;;2.10;1.20;;;15.90;60.20;;;;;;10287134;28;20583;-86
2022/04/10 03:11:54;;;;;;;2.80;1.50;;;15.90;60.10;;;;;;10227463;28;1148941;-85
2022/04/10 03:16:57;;;;;;;3.23;1.73;;;15.90;60.10;;;;;;10272138;28;20315;-85
2022/04/10 03:22:00;;;;;;;2.43;1.37;;;15.90;60.00;;;;;;10271659;28;20203;-86
2022/04/10 03:27:04;;;;;;;3.83;1.50;;;15.90;59.80;;;;;;10272264;28;20225;-86
2022/04/10 03:32:08;;;;;;;2.03;1.30;;;15.90;59.80;;;;;;10272104;28;20206;-86
2022/04/10 03:37:14;;;;;;;2.67;1.80;;;15.90;59.90;;;;;;10256717;28;20257;-86
2022/04/10 03:42:17;;;;;;;2.57;1.73;;;15.90;59.80;;;;;;10289976;28;20210;-86
2022/04/10 03:47:20;;;;;;;2.63;1.37;;;15.90;59.80;;;;;;10271340;28;20245;-86
2022/04/10 03:52:23;;;;;;;1.30;1.20;;;15.80;60.00;;;;;;10270543;28;20320;-85
2022/04/10 03:57:26;;;;;;;2.33;1.40;;;15.80;59.90;;;;;;10270248;28;20320;-85
2022/04/10 04:02:28;;;;;;;3.17;1.63;;;15.70;59.60;;;;;;10285033;28;20326;-84
2022/04/10 04:07:31;;;;;;;1.67;1.00;;;15.70;59.50;;;;;;10246574;28;20246;-84
2022/04/10 04:12:37;;;;;;;5.33;1.93;;;15.70;59.90;;;;;;10318181;28;21040;-84
2022/04/10 04:17:40;;;;;;;2.73;1.10;;;15.70;59.90;;;;;;10308780;28;20314;-85
2022/04/10 04:22:42;;;;;;;3.87;2.20;;;15.70;59.80;;;;;;10307594;28;20652;-84
2022/04/10 04:27:45;;;;;;;1.67;1.10;;;15.50;58.40;;;;;;10308271;28;20264;-84
2022/04/10 04:32:50;;;;;;;4.03;1.27;;;15.70;60.00;;;;;;10290269;28;20240;-84
2022/04/10 04:37:54;;;;;;;1.60;1.20;;;15.80;59.50;;;;;;10325083;28;20260;-84
2022/04/10 04:42:58;;;;;;;3.27;1.20;;;15.90;59.20;;;;;;10306852;28;20292;-84
2022/04/10 04:48:04;;;;;;;2.23;1.30;;;15.90;59.10;;;;;;10292340;28;20285;-85
2022/04/10 04:53:08;;;;;;;5.33;1.50;;;15.80;59.20;;;;;;10291986;28;20244;-84
2022/04/10 04:58:11;;;;;;;2.10;0.97;;;15.80;59.30;;;;;;10307250;28;20257;-84
2022/04/10 05:03:17;;;;;;;3.40;1.47;;;16.00;58.90;;;;;;10292309;28;20228;-84
2022/04/10 05:08:21;;;;;;;2.77;2.00;;;16.00;58.60;;;;;;10300241;28;20284;-84
2022/04/10 05:13:27;;;;;;;1.80;1.20;;;16.00;58.60;;;;;;10274276;28;20234;-84
2022/04/10 05:18:31;;;;;;;1.70;1.10;;;16.10;58.60;;;;;;10284507;28;20272;-84
2022/04/10 05:23:33;;;;;;;2.03;1.20;;;16.10;58.50;;;;;;10259293;28;20202;-84
2022/04/10 05:28:43;;;;;;;2.93;1.43;;;16.10;58.50;;;;;;10290350;28;20269;-84
2022/04/10 05:33:49;;;;;;;3.17;1.60;;;16.00;58.20;;;;;;10286777;28;20979;-84
2022/04/10 05:38:54;;;;;;;1.53;1.00;;;16.00;58.60;;;;;;10273423;28;20635;-84
2022/04/10 05:43:59;;;;;;;2.03;1.43;;;16.00;58.70;;;;;;10287782;28;20245;-85
2022/04/10 05:49:03;;;;;;;2.57;1.50;;;15.90;57.80;;;;;;10291007;28;20249;-85
2022/04/10 05:54:06;;;;;;;2.30;1.30;;;16.00;58.60;;;;;;10290895;28;20323;-85
2022/04/10 05:59:16;;;;;;;1.30;1.10;;;15.90;58.60;;;;;;10275206;28;20218;-85
2022/04/10 06:04:19;;;;;;;3.23;1.23;;;16.00;58.50;;;;;;10274695;28;20637;-84
2022/04/10 06:09:22;;;;;;;2.13;1.50;;;16.00;58.50;;;;;;10289742;28;20230;-84
2022/04/10 06:14:25;;;;;;;1.57;1.13;;;15.80;58.60;;;;;;10274388;28;20257;-84
2022/04/10 06:19:28;;;;;;;4.37;1.77;;;16.00;58.60;;;;;;10290103;28;20230;-84
2022/04/10 06:24:32;;;;;;;5.43;1.80;;;15.90;58.60;;;;;;10290571;28;20266;-84
2022/04/10 06:29:34;;;;;;;2.30;1.33;;;15.90;58.60;;;;;;10273635;28;20206;-84
2022/04/10 06:34:39;;;;;;;2.13;1.30;;;15.90;58.60;;;;;;10273144;28;20264;-84
2022/04/10 06:39:43;;;;;;;3.20;1.30;;;15.90;58.60;;;;;;10272934;28;20238;-84
2022/04/10 06:44:46;;;;;;;2.27;1.57;;;15.90;58.60;;;;;;10273181;28;20291;-84
2022/04/10 06:50:14;;;;;;;2.37;1.57;;;15.90;58.50;;;;;;10273746;28;20269;-84
2022/04/10 06:55:20;;;;;;;2.90;1.47;;;15.90;58.50;;;;;;10291114;28;20230;-87
2022/04/10 07:00:23;;;;;;;2.90;1.53;;;15.90;58.40;;;;;;10276553;28;20233;-85
2022/04/10 07:05:26;;;;;;;2.43;1.43;;;15.90;58.40;;;;;;10293486;28;20206;-85
2022/04/10 07:10:31;;;;;;;1.63;1.50;;;16.00;58.00;;;;;;10275746;28;20664;-83
2022/04/10 07:15:34;;;;;;;2.40;1.60;;;16.00;57.90;;;;;;10272618;28;20277;-85
2022/04/10 07:20:38;;;;;;;1.40;1.13;;;16.10;57.90;;;;;;10287909;28;20235;-83
2022/04/10 07:25:42;;;;;;;4.13;1.60;;;16.00;57.90;;;;;;10272938;28;20245;-84
2022/04/10 07:30:46;;;;;;;1.77;1.50;;;15.90;57.60;;;;;;10310378;28;20244;-84
2022/04/10 07:35:51;;;;;;;3.13;2.20;;;16.10;57.70;;;;;;10310340;28;20265;-84
2022/04/10 07:41:05;;;;;;;3.43;1.90;;;16.10;57.60;;;;;;10322159;28;20240;-86
2022/04/10 07:51:43;;;;;;;3.57;2.23;;;16.20;57.50;;;;;;10315069;28;20732;-86
2022/04/10 07:57:03;;;;;;;7.67;3.30;;;16.20;57.50;;;;;;10310800;28;20333;-86
2022/04/10 08:02:07;;;;;;;2.47;1.60;;;15.30;56.10;;;;;;10327046;28;20621;-86
2022/04/10 08:07:12;;;;;;;2.13;1.60;;;16.00;57.60;;;;;;10310154;28;20247;-86
2022/04/10 08:12:16;;;;;;;3.20;1.67;;;16.00;57.50;;;;;;10310492;28;20641;-85
2022/04/10 08:17:18;;;;;;;3.27;1.63;;;16.20;57.40;;;;;;10295381;28;20252;-87
2022/04/10 08:22:25;;;;;;;2.83;1.57;;;16.10;57.40;;;;;;10328336;28;20635;-86
2022/04/10 08:27:28;;;;;;;3.03;1.60;;;16.10;57.40;;;;;;10332013;28;20234;-90
2022/04/10 08:32:37;;;;;;;4.63;1.80;;;16.00;57.50;;;;;;10335362;28;20581;-86
2022/04/10 08:37:40;;;;;;;1.93;1.60;;;16.00;57.70;;;;;;10326748;28;20264;-86
2022/04/10 08:42:43;;;;;;;2.30;1.57;;;16.00;57.60;;;;;;10328233;28;20245;-86
2022/04/10 08:47:45;;;;;;;4.27;1.73;;;15.90;57.70;;;;;;10333599;28;20631;-86
2022/04/10 08:52:52;;;;;;;2.60;1.67;;;15.80;58.00;;;;;;10335259;28;20246;-86
2022/04/10 08:57:54;;;;;;;2.47;1.87;;;15.70;58.30;;;;;;10316731;28;20296;-86
2022/04/10 09:02:57;;;;;;;3.63;1.93;;;15.80;57.80;;;;;;10334680;28;20236;-85
2022/04/10 09:08:10;;;;;;;2.63;1.87;;;15.90;57.80;;;;;;10320597;28;20731;-86
2022/04/10 09:13:12;;;;;;;2.53;2.10;;;15.90;57.50;;;;;;10293353;28;20241;-86
2022/04/10 09:18:15;;;;;;;3.23;1.57;;;15.90;57.60;;;;;;10294010;28;20263;-86
2022/04/10 09:23:22;;;;;;;3.27;2.53;;;15.90;57.70;;;;;;10293981;28;20234;-86
2022/04/10 09:28:45;;;;;;;2.40;1.80;;;16.00;57.30;;;;;;10293594;28;20238;-86
2022/04/10 09:33:50;;;;;;;1.90;1.30;;;16.10;57.20;;;;;;10293605;28;20289;-86
2022/04/10 09:38:53;;;;;;;3.37;1.43;;;16.10;57.00;;;;;;10291645;28;20269;-87
2022/04/10 09:44:21;;;;;;;3.73;1.63;;;16.00;57.10;;;;;;10291410;28;20764;-87
2022/04/10 09:49:24;;;;;;;2.93;1.83;;;16.10;57.00;;;;;;10292824;28;20623;-86
2022/04/10 09:54:38;;;;;;;3.50;1.40;;;16.20;56.80;;;;;;10265786;28;20242;-87
2022/04/10 09:59:47;;;;;;;2.60;1.57;;;16.20;56.60;;;;;;10234881;29;20238;-87
2022/04/10 10:04:49;;;;;;;3.27;1.63;;;16.20;56.50;;;;;;10278663;28;20326;-86
2022/04/10 10:09:52;;;;;;;1.77;1.23;;;16.20;56.50;;;;;;10250677;28;20262;-86
2022/04/10 10:14:56;;;;;;;4.07;1.77;;;16.20;56.50;;;;;;10234247;29;20603;-86
2022/04/10 10:20:00;;;;;;;2.07;1.40;;;16.20;56.50;;;;;;10251445;29;20240;-86
2022/04/10 10:25:11;;;;;;;3.10;1.50;;;16.10;56.60;;;;;;10234612;29;20242;-86
2022/04/10 10:30:32;;;;;;;4.80;2.07;;;16.10;56.70;;;;;;10246868;29;20242;-86
2022/04/10 10:35:40;;;;;;;2.20;1.20;;;16.00;56.80;;;;;;10250807;29;20933;-86
2022/04/10 10:40:43;;;;;;;2.57;1.60;;;16.00;56.80;;;;;;10250170;29;20250;-86
2022/04/10 10:45:45;;;;;;;1.60;1.40;;;15.90;57.10;;;;;;10233050;29;20715;-86
2022/04/10 10:51:11;;;;;;;2.10;1.53;;;15.90;57.10;;;;;;10250139;29;20313;-86
2022/04/10 10:56:17;;;;;;;4.07;1.97;;;15.90;57.00;;;;;;10247100;29;20314;-86
2022/04/10 11:01:59;;;;;;;3.80;1.70;;;15.70;57.10;;;;;;10248568;28;20710;-86
2022/04/10 11:07:21;;;;;;;7.63;2.10;;;15.70;57.40;;;;;;10224979;29;20206;-84
2022/04/10 11:12:32;;;;;;;2.50;1.93;;;15.80;57.30;;;;;;10209674;29;20337;-86
2022/04/10 11:17:35;;;;;;;2.53;1.80;;;15.80;57.20;;;;;;10246260;29;20262;-85
2022/04/10 11:22:53;;;;;;;2.30;1.57;;;15.90;57.00;;;;;;10248039;29;20274;-85
2022/04/10 11:28:03;;;;;;;5.17;2.83;;;15.90;56.70;;;;;;10232051;29;20241;-86
2022/04/10 11:33:06;;;;;;;5.87;2.10;;;15.20;56.60;;;;;;10219227;29;20648;-86
2022/04/10 11:38:17;;;;;;;2.40;1.70;;;16.00;56.70;;;;;;10247376;29;20681;-86
2022/04/10 11:43:21;;;;;;;2.20;1.50;;;16.00;56.60;;;;;;10215061;29;20293;-86
2022/04/10 11:48:25;;;;;;;7.30;2.73;;;15.90;56.60;;;;;;10230695;29;20238;-85
2022/04/10 11:53:30;;;;;;;8.23;4.63;;;14.50;51.60;;;;;;10229801;29;20305;-86
2022/04/10 11:58:35;;;;;;;8.77;5.47;;;11.30;69.90;;;;;;10248094;29;20257;-86
2022/04/10 12:03:43;;;;;;;5.13;3.80;;;15.60;61.70;;;;;;10230688;29;20241;-86
2022/04/10 12:08:47;;;;;;;5.10;3.73;;;15.70;58.50;;;;;;10241540;28;20335;-86
2022/04/10 12:13:50;;;;;;;4.50;3.03;;;16.10;59.60;;;;;;10269348;28;20249;-86
2022/04/10 12:18:54;;;;;;;4.57;2.70;;;;;;;;;;10266325;28;20805;-86
2022/04/10 12:24:04;;;;;;;2.50;2.03;;;16.40;58.10;;;;;;10268605;28;20202;-86
2022/04/10 12:29:06;;;;;;;4.70;2.13;;;15.90;59.10;;;;;;10287215;28;20245;-86
2022/04/10 12:34:10;;;;;;;17.93;3.03;;;16.00;58.60;;;;;;10270577;28;20242;-86
2022/04/10 12:39:29;;;;;;;5.17;2.40;;;16.30;62.00;;;;;;10268672;28;20257;-86
2022/04/10 12:44:31;;;;;;;3.37;2.20;;;16.10;60.40;;;;;;10283815;28;20318;-84
2022/04/10 12:49:35;;;;;;;3.17;2.13;;;16.10;59.60;;;;;;10285841;28;20284;-85
2022/04/10 12:54:39;;;;;;;6.10;2.07;;;15.90;59.70;;;;;;10270499;28;20241;-85
2022/04/10 12:59:44;;;;;;;3.47;1.73;;;15.40;60.30;;;;;;10285947;28;20265;-84
2022/04/10 13:05:03;;;;;;;7.53;1.63;;;16.00;59.10;;;;;;10287103;28;20698;-85
2022/04/10 13:10:06;;;;;;;3.93;1.67;;;16.00;58.50;;;;;;10265627;28;20319;-85
2022/04/10 13:15:32;;;;;;;4.17;2.00;;;15.90;58.40;;;;;;10245198;29;20246;-85
2022/04/10 13:20:39;;;;;;;2.33;1.50;;;15.20;59.80;;;;;;10242155;29;20288;-84
2022/04/10 13:25:44;;;;;;;4.40;1.37;;;15.70;58.60;;;;;;10227997;29;20244;-84
2022/04/10 13:30:47;;;;;;;3.63;2.00;;;15.90;57.90;;;;;;10232003;29;20695;-85
2022/04/10 13:35:49;;;;;;;2.57;1.63;;;16.00;57.80;;;;;;10233804;29;20239;-85
2022/04/10 13:40:51;;;;;;;2.50;1.63;;;16.00;57.70;;;;;;10235904;29;20234;-85
2022/04/10 13:45:54;;;;;;;2.57;1.50;;;15.90;57.70;;;;;;10251627;29;20283;-84
2022/04/10 13:50:58;;;;;;;3.60;1.40;;;16.00;57.70;;;;;;10227124;29;20308;-85
2022/04/10 13:56:01;;;;;;;3.33;1.60;;;16.10;57.60;;;;;;10251378;29;20315;-85
2022/04/10 14:01:04;;;;;;;2.23;1.47;;;16.00;58.00;;;;;;10234452;29;20287;-86
2022/04/10 14:06:06;;;;;;;3.90;1.63;;;16.10;58.00;;;;;;10218869;29;20763;-85
2022/04/10 14:11:09;;;;;;;2.33;1.53;;;16.10;58.00;;;;;;10250300;28;20261;-85
2022/04/10 14:16:12;;;;;;;3.63;1.57;;;16.10;57.70;;;;;;10250832;29;20769;-85
2022/04/10 14:21:15;;;;;;;9.70;3.40;;;16.10;57.50;;;;;;10250628;29;20247;-85
2022/04/10 14:26:17;;;;;;;7.37;3.00;;;16.70;71.20;;;;;;10249274;29;20265;-84
2022/04/10 14:31:20;;;;;;;4.90;2.77;;;16.70;69.80;;;;;;10232677;29;20306;-85
2022/04/10 14:36:23;;;;;;;3.53;2.00;;;16.50;68.90;;;;;;10248589;29;20256;-84
2022/04/10 14:41:25;;;;;;;2.73;2.40;;;16.30;67.40;;;;;;10227637;28;20302;-83
2022/04/10 14:46:28;;;;;;;7.10;2.20;;;16.20;66.40;;;;;;10231681;29;20234;-84
2022/04/10 14:51:31;;;;;;;2.00;1.43;;;16.30;65.20;;;;;;10234855;29;20241;-83
2022/04/10 14:56:34;;;;;;;4.00;1.90;;;16.20;64.30;;;;;;10226901;29;20245;-85
2022/04/10 15:01:37;;;;;;;2.57;1.90;;;16.10;64.20;;;;;;10228374;29;20270;-85
2022/04/10 15:06:40;;;;;;;3.57;2.23;;;16.00;63.80;;;;;;10253831;28;20274;-85
2022/04/10 15:11:43;;;;;;;5.43;2.53;;;16.00;63.80;;;;;;10224910;29;20312;-85
2022/04/10 15:16:45;;;;;;;3.40;2.10;;;16.00;63.60;;;;;;10248244;29;20262;-84
2022/04/10 15:21:48;;;;;;;2.83;1.90;;;15.90;63.50;;;;;;10250723;28;20293;-88
2022/04/10 15:26:52;;;;;;;2.83;1.67;;;14.60;60.90;;;;;;10241361;29;20242;-84
2022/04/10 15:31:55;;;;;;;3.70;2.27;;;13.50;63.20;;;;;;10247331;29;20646;-84
2022/04/10 15:36:58;;;;;;;4.10;2.10;;;14.40;61.20;;;;;;10245584;29;20699;-84
2022/04/10 15:42:00;;;;;;;2.87;2.10;;;15.00;59.80;;;;;;10245531;28;20304;-85
2022/04/10 15:47:03;;;;;;;3.30;2.23;;;15.20;59.60;;;;;;10246382;29;20223;-84
2022/04/10 15:52:06;;;;;;;3.60;2.57;;;15.40;58.90;;;;;;10246895;28;20306;-85
2022/04/10 15:57:09;;;;;;;2.63;1.90;;;15.10;59.00;;;;;;10245362;29;20267;-84
2022/04/10 16:02:12;;;;;;;2.23;1.43;;;15.40;59.10;;;;;;10245544;29;20655;-84
2022/04/10 16:07:15;;;;;;;6.53;3.70;;;15.80;58.80;;;;;;10228318;29;20367;-87
2022/04/10 16:12:17;;;;;;;5.33;3.03;;;14.30;56.20;;;;;;10268730;28;20245;-84
2022/04/10 16:17:20;;;;;;;8.37;3.10;;;9.80;66.80;;;;;;10235554;29;20654;-84
2022/04/10 16:22:22;;;;;;;8.67;3.70;;;12.00;66.60;;;;;;10246141;28;20237;-85
2022/04/10 16:32:48;;;;;;;7.53;3.13;;;14.00;59.50;;;;;;10207543;29;20289;-87
2022/04/10 16:37:56;;;;;;;8.20;2.60;;;12.70;63.50;;;;;;10233809;29;20269;-86
2022/04/10 16:42:58;;;;;;;6.90;2.80;;;14.90;59.00;;;;;;10224362;28;20763;-85
2022/04/10 16:48:01;;;;;;;8.73;2.90;;;15.20;58.40;;;;;;10240964;28;20769;-85
2022/04/10 16:53:05;;;;;;;5.73;2.70;;;15.50;58.00;;;;;;10252211;28;20674;-85
2022/04/10 16:58:08;;;;;;;6.30;2.80;;;15.50;58.00;;;;;;10238178;28;20254;-85
2022/04/10 17:03:13;;;;;;;9.23;3.10;;;15.50;58.10;;;;;;10228249;28;20232;-84
2022/04/10 17:08:15;;;;;;;5.63;3.13;;;15.50;58.00;;;;;;10213863;28;20710;-85
2022/04/10 17:13:18;;;;;;;7.83;2.90;;;15.70;58.00;;;;;;10252594;29;20271;-85
2022/04/10 17:18:20;;;;;;;4.23;2.40;;;15.60;58.10;;;;;;10215805;29;20309;-85
2022/04/10 17:23:22;;;;;;;5.50;2.20;;;15.60;58.20;;;;;;10253687;29;20239;-85
2022/04/10 17:28:27;;;;;;;5.33;2.07;;;15.50;58.70;;;;;;10235869;29;20250;-86
2022/04/10 17:33:34;;;;;;;4.10;1.80;;;15.40;58.80;;;;;;10235793;29;20695;-85
2022/04/10 17:38:36;;;;;;;5.17;2.30;;;15.40;58.90;;;;;;10253069;29;20679;-85
2022/04/10 17:43:39;;;;;;;7.83;2.57;;;15.30;59.20;;;;;;10235258;29;21013;-85
2022/04/10 17:48:41;;;;;;;3.37;1.83;;;15.00;59.80;;;;;;10241071;29;20592;-85
2022/04/10 17:53:45;;;;;;;4.13;1.73;;;14.80;60.40;;;;;;10217390;29;20234;-85
2022/04/10 17:58:48;;;;;;;4.37;2.43;;;15.10;60.00;;;;;;10252301;28;20343;-85
2022/04/10 18:03:51;;;;;;;10.53;5.33;;;14.70;60.10;;;;;;10251266;29;20206;-85
2022/04/10 18:08:54;;;;;;;6.27;2.40;;;13.90;61.60;;;;;;10248615;28;20874;-86
2022/04/10 18:13:57;;;;;;;12.30;6.80;;;13.90;63.40;;;;;;10253631;29;20207;-85
2022/04/10 18:18:59;;;;;;;10.40;4.80;;;13.50;62.80;;;;;;10216761;29;20259;-85
2022/04/10 18:24:02;;;;;;;15.47;8.80;;;13.00;64.70;;;;;;10251876;29;20561;-85
2022/04/10 18:29:04;;;;;;;12.23;6.33;;;12.00;65.60;;;;;;9905813;29;10000429;-85
2022/04/10 18:34:07;;;;;;;9.90;5.07;;;11.20;69.80;;;;;;10248700;29;20250;-85
2022/04/10 18:39:11;;;;;;;11.70;5.93;;;11.80;70.10;;;;;;10247250;29;20266;-85
2022/04/10 18:44:13;;;;;;;4.93;2.70;;;12.30;68.40;;;;;;10246414;29;20249;-85
2022/04/10 18:54:40;;;;;;;5.67;2.97;;;13.90;64.50;;;;;;10248959;29;20254;-85
2022/04/10 18:59:43;;;;;;;4.40;3.20;;;14.20;63.50;;;;;;10248109;29;20646;-85
2022/04/10 19:04:47;;;;;;;5.67;3.10;;;14.60;62.20;;;;;;10247105;29;20758;-85
2022/04/10 19:09:49;;;;;;;6.17;3.47;;;15.00;61.50;;;;;;10233075;28;20313;-85
2022/04/10 19:14:52;;;;;;;7.53;3.20;;;15.20;60.80;;;;;;10232395;29;20241;-85
2022/04/10 19:19:55;;;;;;;5.00;3.00;;;15.40;60.40;;;;;;10248991;29;20265;-85
2022/04/10 19:24:57;;;;;;;6.27;2.80;;;15.40;60.20;;;;;;10247994;29;20242;-85
2022/04/10 19:30:00;;;;;;;4.90;3.40;;;15.40;60.00;;;;;;10230799;29;20683;-85
2022/04/10 19:35:04;;;;;;;5.33;2.90;;;15.50;59.80;;;;;;10248238;29;20695;-85
2022/04/10 19:40:07;;;;;;;4.83;3.17;;;15.40;60.10;;;;;;10231145;29;20265;-86
2022/04/10 19:45:09;;;;;;;5.90;3.50;;;15.30;60.10;;;;;;10248806;29;20234;-86
2022/04/10 19:50:12;;;;;;;7.97;3.30;;;15.30;60.30;;;;;;10248257;29;20242;-85
2022/04/10 19:55:14;;;;;;;6.70;3.30;;;15.30;60.30;;;;;;10247039;29;20246;-84
2022/04/10 20:00:17;;;;;;;5.10;2.90;;;15.20;60.50;;;;;;10246984;29;20277;-84
2022/04/10 20:05:21;;;;;;;5.03;2.43;;;15.10;60.70;;;;;;10248736;29;20672;-84
2022/04/10 20:10:25;;;;;;;3.40;2.77;;;14.90;61.20;;;;;;10228684;28;20269;-84
2022/04/10 20:15:29;;;;;;;4.10;2.77;;;14.70;61.60;;;;;;10245309;29;20270;-85
2022/04/10 20:20:31;;;;;;;6.00;3.13;;;14.50;62.40;;;;;;10222774;29;20325;-85
2022/04/10 20:25:34;;;;;;;5.10;3.00;;;14.50;62.40;;;;;;10243923;28;20662;-85
2022/04/10 20:30:37;;;;;;;3.27;2.83;;;14.40;62.70;;;;;;10246035;29;20254;-85
2022/04/10 20:35:39;;;;;;;4.73;2.60;;;14.30;62.70;;;;;;10246489;29;20316;-85
2022/04/10 20:40:42;;;;;;;5.53;3.00;;;14.30;63.00;;;;;;10252205;28;20344;-85
2022/04/10 20:45:44;;;;;;;6.90;3.33;;;14.30;63.00;;;;;;10255353;29;20678;-85
2022/04/10 20:50:47;;;;;;;6.17;3.37;;;14.30;62.90;;;;;;10238186;29;20254;-85
2022/04/10 20:55:50;;;;;;;6.70;4.00;;;14.40;63.00;;;;;;10252494;29;20618;-85
2022/04/10 21:00:52;;;;;;;7.00;3.50;;;14.00;63.40;;;;;;10255067;29;20258;-85
2022/04/10 21:05:55;;;;;;;5.50;3.07;;;14.00;63.80;;;;;;10251885;29;20673;-84
2022/04/10 21:10:57;;;;;;;4.60;3.23;;;14.10;63.80;;;;;;10253003;28;20328;-85
2022/04/10 21:16:01;;;;;;;4.87;3.33;;;14.40;63.20;;;;;;10220941;29;20273;-85
2022/04/10 21:21:03;;;;;;;6.93;3.80;;;14.50;63.00;;;;;;10254139;29;20328;-85
2022/04/10 21:26:06;;;;;;;6.23;3.83;;;14.70;62.40;;;;;;10254032;29;20250;-85
2022/04/10 21:31:09;;;;;;;4.87;3.30;;;14.80;62.30;;;;;;10254230;29;20238;-85
2022/04/10 21:36:11;;;;;;;7.13;3.97;;;14.90;61.90;;;;;;10252273;29;20747;-85
2022/04/10 21:41:14;;;;;;;6.57;3.83;;;14.90;61.80;;;;;;10250667;29;20306;-85
2022/04/10 21:46:16;;;;;;;7.60;4.43;;;15.00;61.70;;;;;;10235370;29;20668;-85
2022/04/10 21:51:19;;;;;;;7.23;4.33;;;15.10;61.40;;;;;;10251863;28;20635;-85
2022/04/10 21:56:22;;;;;;;5.93;4.00;;;15.10;61.30;;;;;;10236345;29;20308;-85
2022/04/10 22:01:24;;;;;;;7.47;4.27;;;15.20;61.10;;;;;;10233424;29;20683;-85
2022/04/10 22:06:27;;;;;;;5.53;4.10;;;15.20;61.00;;;;;;10250926;29;20227;-85
2022/04/10 22:11:29;;;;;;;7.23;3.87;;;15.20;61.00;;;;;;10266267;28;20740;-85
2022/04/10 22:16:31;;;;;;;6.33;4.33;;;15.30;60.80;;;;;;10292116;28;20249;-85
2022/04/10 22:21:34;;;;;;;8.07;3.90;;;15.20;60.80;;;;;;10291203;28;20320;-85
2022/04/10 22:26:37;;;;;;;7.70;4.47;;;15.10;61.10;;;;;;10274265;28;20338;-85
2022/04/10 22:31:39;;;;;;;6.00;3.47;;;15.30;60.60;;;;;;10274374;28;20308;-85
2022/04/10 22:36:42;;;;;;;5.37;3.53;;;15.30;60.50;;;;;;10295100;28;20261;-85
2022/04/10 22:41:44;;;;;;;5.07;3.10;;;15.30;60.50;;;;;;10291461;28;20253;-84
2022/04/10 22:46:47;;;;;;;6.83;3.70;;;15.40;60.30;;;;;;10289982;28;20669;-85
2022/04/10 22:51:50;;;;;;;8.17;4.17;;;15.40;60.20;;;;;;10289914;28;20237;-84
2022/04/10 22:56:52;;;;;;;8.70;4.37;;;15.50;59.90;;;;;;10291397;28;20237;-84
2022/04/10 23:01:55;;;;;;;5.17;3.63;;;15.40;60.20;;;;;;10273057;28;20682;-84
2022/04/10 23:06:59;;;;;;;5.77;3.97;;;15.40;60.00;;;;;;10272611;28;20229;-84
2022/04/10 23:12:02;;;;;;;5.03;3.47;;;15.20;60.40;;;;;;10289950;28;20254;-84
2022/04/10 23:17:04;;;;;;;6.10;4.07;;;15.00;60.70;;;;;;10289450;28;20696;-84
2022/04/10 23:22:07;;;;;;;6.37;3.83;;;14.90;61.00;;;;;;10290166;28;20251;-84
2022/04/10 23:27:09;;;;;;;4.97;3.50;;;14.60;61.60;;;;;;10289742;28;20234;-84
2022/04/10 23:32:12;;;;;;;6.87;3.60;;;14.60;62.00;;;;;;10289267;28;20198;-84
2022/04/10 23:37:14;;;;;;;4.67;3.13;;;14.80;61.50;;;;;;10289723;28;20280;-84
2022/04/10 23:42:17;;;;;;;6.83;3.23;;;14.80;61.40;;;;;;10288695;28;20255;-84
2022/04/10 23:47:19;;;;;;;6.53;3.73;;;14.90;61.30;;;;;;10289022;28;20214;-84
2022/04/10 23:52:22;;;;;;;5.33;3.23;;;14.90;61.10;;;;;;10271563;28;20663;-84
2022/04/10 23:57:24;;;;;;;4.40;2.93;;;15.00;60.80;;;;;;10255018;28;20233;-84
